createdAt,value
2018-11-07T06:33:08.068Z,10.87
2018-11-07T06:35:36.541Z,9.17
2018-11-07T06:38:13.696Z,33.53
2018-11-07T06:40:42.675Z,33.07
2018-11-07T06:43:11.571Z,33.20
2018-11-07T06:45:40.578Z,33.03
2018-11-07T06:48:09.454Z,34.30
2018-11-07T06:50:38.865Z,33.90
2018-11-07T06:56:06.455Z,34.83
2018-11-07T06:58:35.478Z,35.10
2018-11-07T07:01:04.571Z,36.47
2018-11-07T07:03:33.882Z,34.87
2018-11-07T07:06:03.061Z,36.70
2018-11-07T07:08:31.929Z,38.07
2018-11-07T07:11:00.917Z,35.40
2018-11-07T07:13:30.340Z,36.37
2018-11-07T07:15:59.678Z,36.23
2018-11-07T07:18:29.876Z,38.30
2018-11-07T07:20:58.861Z,35.20
2018-11-07T07:23:28.467Z,36.17
2018-11-07T07:25:58.120Z,35.30
2018-11-07T07:28:27.588Z,36.37
2018-11-07T07:31:01.980Z,35.40
2018-11-07T07:33:31.732Z,35.93
2018-11-07T07:36:02.932Z,35.13
2018-11-07T07:38:41.167Z,34.60
2018-11-07T07:41:10.573Z,34.87
2018-11-07T07:43:42.698Z,34.37
2018-11-07T10:30:58.276Z,25.10
2018-11-07T11:09:03.228Z,26.70
2018-11-07T11:11:32.520Z,28.30
2018-11-07T11:14:01.168Z,28.97
2018-11-07T11:16:34.689Z,26.60
2018-11-07T11:19:04.552Z,27.63
2018-11-07T11:21:40.081Z,29.80
2018-11-07T11:24:08.803Z,30.67
2018-11-07T11:26:41.292Z,27.53
2018-11-07T11:29:13.472Z,28.27
2018-11-07T11:31:44.089Z,27.20
2018-11-07T11:36:58.966Z,28.60
2018-11-07T11:39:27.744Z,29.07
2018-11-07T11:41:57.649Z,28.63
2018-11-07T11:44:28.277Z,28.60
2018-11-07T11:46:57.758Z,29.77
2018-11-07T11:49:27.644Z,31.27
2018-11-07T11:51:56.481Z,30.67
2018-11-07T11:54:28.103Z,31.23
2018-11-07T11:57:00.156Z,32.80
2018-11-07T11:59:29.699Z,32.17
2018-11-07T12:01:59.094Z,31.07
2018-11-07T12:04:30.141Z,32.47
2018-11-07T12:06:59.595Z,31.40
2018-11-07T12:09:28.904Z,31.93
2018-11-07T12:11:57.925Z,29.27
2018-11-07T12:14:27.462Z,30.17
2018-11-07T12:16:59.180Z,30.43
2018-11-07T12:19:28.253Z,29.40
2018-11-07T12:21:59.746Z,28.90
2018-11-07T12:24:31.299Z,29.73
2018-11-07T12:27:03.547Z,27.57
2018-11-07T12:29:36.484Z,29.37
2018-11-07T12:32:06.895Z,29.57
2018-11-07T12:34:35.674Z,30.00
2018-11-07T12:37:06.102Z,30.60
2018-11-07T12:39:37.913Z,30.90
2018-11-07T12:42:06.745Z,30.57
2018-11-07T12:44:37.879Z,30.43
2018-11-07T12:47:08.624Z,32.07
2018-11-07T12:49:38.100Z,32.10
2018-11-07T12:52:07.942Z,30.27
2018-11-07T12:54:39.696Z,30.60
2018-11-07T12:57:09.345Z,32.87
2018-11-07T12:59:38.507Z,32.43
2018-11-07T13:04:44.758Z,34.50
2018-11-07T13:07:14.376Z,32.77
2018-11-07T13:09:44.298Z,32.73
2018-11-07T13:12:13.147Z,33.80
2018-11-07T13:14:42.024Z,32.40
2018-11-07T13:17:11.247Z,34.27
2018-11-07T13:19:40.069Z,32.13
2018-11-07T13:22:10.240Z,35.67
2018-11-07T13:24:40.162Z,34.73
2018-11-07T13:27:09.454Z,33.20
2018-11-07T13:29:39.515Z,34.97
2018-11-07T13:32:12.435Z,35.87
2018-11-07T13:34:42.105Z,36.27
2018-11-07T13:37:11.863Z,37.50
2018-11-07T13:39:44.291Z,37.37
2018-11-07T13:42:13.312Z,37.90
2018-11-07T13:44:44.400Z,38.77
2018-11-07T13:47:19.966Z,39.23
2018-11-07T13:49:49.709Z,39.33
2018-11-07T13:52:20.306Z,40.23
2018-11-07T13:54:53.581Z,38.80
2018-11-07T13:57:24.167Z,41.30
2018-11-07T13:59:55.071Z,40.53
2018-11-07T14:02:24.601Z,41.00
2018-11-07T14:04:53.412Z,41.60
2018-11-07T14:07:22.310Z,42.60
2018-11-07T14:09:57.399Z,42.93
2018-11-07T14:12:26.410Z,41.63
2018-11-07T14:14:57.739Z,46.50
2018-11-07T14:17:27.975Z,44.27
2018-11-07T14:19:58.807Z,45.87
2018-11-07T14:22:27.853Z,47.07
2018-11-07T14:24:56.909Z,45.80
2018-11-07T14:27:26.154Z,46.43
2018-11-07T14:30:01.065Z,48.63
2018-11-07T14:32:35.828Z,46.87
2018-11-07T14:35:08.305Z,47.57
2018-11-07T14:37:43.105Z,47.93
2018-11-07T14:40:18.261Z,49.80
2018-11-07T14:42:48.559Z,49.50
2018-11-07T14:45:25.553Z,49.43
2018-11-07T14:47:55.112Z,48.67
2018-11-07T14:50:24.947Z,49.40
2018-11-07T14:52:55.562Z,45.53
2018-11-07T14:55:24.379Z,46.20
2018-11-07T14:57:54.246Z,45.67
2018-11-07T15:00:26.872Z,48.20
2018-11-07T15:02:56.406Z,46.63
2018-11-07T15:05:25.243Z,46.13
2018-11-07T15:07:53.893Z,47.93
2018-11-07T15:10:22.511Z,47.30
2018-11-07T15:12:51.149Z,46.80
2018-11-07T15:15:20.310Z,48.73
2018-11-07T15:17:48.971Z,49.03
2018-11-07T15:20:18.373Z,47.43
2018-11-07T15:22:47.066Z,46.80
2018-11-07T15:25:16.676Z,51.80
2018-11-07T15:27:46.281Z,49.03
2018-11-07T15:30:16.412Z,49.77
2018-11-07T15:32:45.737Z,48.00
2018-11-07T15:35:15.026Z,51.30
2018-11-07T15:37:43.978Z,48.40
2018-11-07T15:40:18.838Z,52.57
2018-11-07T15:42:48.589Z,51.80
2018-11-07T15:45:18.632Z,49.17
2018-11-07T15:47:48.349Z,50.00
2018-11-07T15:50:22.795Z,50.23
2018-11-07T15:52:55.112Z,50.03
2018-11-07T15:55:23.790Z,52.70
2018-11-07T15:57:52.411Z,51.37
2018-11-07T16:00:23.409Z,51.40
2018-11-07T16:02:52.271Z,50.47
2018-11-07T16:05:20.989Z,48.83
2018-11-07T16:07:50.005Z,52.30
2018-11-07T16:10:18.781Z,51.17
2018-11-07T16:12:47.477Z,52.13
2018-11-07T16:15:17.416Z,54.27
2018-11-07T16:17:46.431Z,50.30
2018-11-07T16:20:17.014Z,53.07
2018-11-07T16:22:53.353Z,48.97
2018-11-07T16:25:26.577Z,50.67
2018-11-07T16:27:56.122Z,48.00
2018-11-07T16:30:25.132Z,49.00
2018-11-07T16:32:54.141Z,51.40
2018-11-07T16:35:23.998Z,48.70
2018-11-07T16:37:52.840Z,48.67
2018-11-07T16:40:22.153Z,51.73
2018-11-07T16:42:52.455Z,52.87
2018-11-07T16:45:21.831Z,52.23
2018-11-07T16:47:53.846Z,51.57
2018-11-07T16:50:24.371Z,49.97
2018-11-07T16:52:58.013Z,50.70
2018-11-07T16:55:29.598Z,52.33
2018-11-07T16:57:58.490Z,49.70
2018-11-07T17:00:27.269Z,50.97
2018-11-07T17:02:56.224Z,52.40
2018-11-07T17:05:25.157Z,50.00
2018-11-07T17:07:59.697Z,49.03
2018-11-07T17:10:29.869Z,49.47
2018-11-07T17:13:02.622Z,49.47
2018-11-07T17:15:33.122Z,49.97
2018-11-07T17:18:02.244Z,48.40
2018-11-07T17:20:35.348Z,50.13
2018-11-07T17:23:04.164Z,49.57
2018-11-07T17:25:37.207Z,48.43
2018-11-07T17:28:06.588Z,49.10
2018-11-07T17:30:35.810Z,50.17
2018-11-07T17:33:05.500Z,47.63
2018-11-07T17:35:34.271Z,49.17
2018-11-07T17:38:03.053Z,48.47
2018-11-07T17:40:47.584Z,50.10
2018-11-07T17:43:18.486Z,50.50
2018-11-07T17:45:47.406Z,50.87
2018-11-07T17:48:19.034Z,49.20
2018-11-07T17:50:49.343Z,48.23
2018-11-07T17:53:18.861Z,50.40
2018-11-07T17:55:47.769Z,50.23
2018-11-07T17:58:21.866Z,49.73
2018-11-07T18:00:50.927Z,50.47
2018-11-07T18:03:20.424Z,49.23
2018-11-07T18:05:49.632Z,49.03
2018-11-07T18:08:24.981Z,48.13
2018-11-07T18:10:56.317Z,49.70
2018-11-07T18:13:26.568Z,46.77
2018-11-07T18:15:57.670Z,49.13
2018-11-07T18:18:26.615Z,48.23
2018-11-07T18:20:55.576Z,50.40
2018-11-07T18:23:27.948Z,50.63
2018-11-07T18:25:56.886Z,48.40
2018-11-07T18:28:27.101Z,51.50
2018-11-07T18:30:56.960Z,50.23
2018-11-07T18:33:26.046Z,50.47
2018-11-07T18:35:55.681Z,50.63
2018-11-07T18:38:27.241Z,52.07
2018-11-07T18:43:48.757Z,50.57
2018-11-07T18:46:19.849Z,51.43
2018-11-07T18:48:49.645Z,52.93
2018-11-07T18:51:18.992Z,50.07
2018-11-07T18:53:48.102Z,49.10
2018-11-07T18:56:16.951Z,50.87
2018-11-07T18:58:46.946Z,49.87
2018-11-07T19:01:15.995Z,49.83
2018-11-07T19:03:47.714Z,51.73
2018-11-07T19:06:24.630Z,49.93
2018-11-07T19:08:54.984Z,51.93
2018-11-07T19:11:24.764Z,52.13
2018-11-07T19:13:54.609Z,52.57
2018-11-07T19:16:23.710Z,53.03
2018-11-07T19:18:52.617Z,52.50
2018-11-07T19:21:21.552Z,51.03
2018-11-07T19:23:51.626Z,51.20
2018-11-07T19:26:20.819Z,53.70
2018-11-07T19:28:50.380Z,52.13
2018-11-07T19:31:19.174Z,51.80
2018-11-07T19:33:48.382Z,51.37
2018-11-07T19:36:17.377Z,53.10
2018-11-07T19:38:46.253Z,52.30
2018-11-07T19:41:15.230Z,55.80
2018-11-07T19:43:44.814Z,52.47
2018-11-07T19:46:13.921Z,54.37
2018-11-07T19:48:43.485Z,53.10
2018-11-07T19:51:12.738Z,54.83
2018-11-07T19:53:41.811Z,56.17
2018-11-07T19:56:10.530Z,51.23
2018-11-07T19:58:40.368Z,54.77
2018-11-07T20:01:09.566Z,52.57
2018-11-07T20:03:42.199Z,56.67
2018-11-07T20:06:11.544Z,55.47
2018-11-07T20:08:41.363Z,56.80
2018-11-07T20:11:10.681Z,55.07
2018-11-07T20:13:39.816Z,54.90
2018-11-07T20:16:08.669Z,55.30
2018-11-07T20:18:38.221Z,56.30
2018-11-07T20:21:07.242Z,54.43
2018-11-07T20:23:36.214Z,57.57
2018-11-07T20:26:05.561Z,55.07
2018-11-07T20:28:34.388Z,54.13
2018-11-07T20:31:02.987Z,56.07
2018-11-07T20:33:32.023Z,55.37
2018-11-07T20:36:01.777Z,57.27
2018-11-07T20:38:31.076Z,57.57
2018-11-07T20:41:00.626Z,55.80
2018-11-07T20:43:32.359Z,55.57
2018-11-07T20:46:02.554Z,56.97
2018-11-07T20:48:31.631Z,56.50
2018-11-07T20:51:01.386Z,58.57
2018-11-07T20:53:30.909Z,58.63
2018-11-07T20:56:00.514Z,58.03
2018-11-07T20:58:29.628Z,58.47
2018-11-07T21:00:59.410Z,57.87
2018-11-07T21:03:30.092Z,56.50
2018-11-07T21:05:58.886Z,56.20
2018-11-07T21:08:28.228Z,59.57
2018-11-07T21:10:57.289Z,57.17
2018-11-07T21:13:26.388Z,55.77
2018-11-07T21:15:55.687Z,56.37
2018-11-07T21:18:25.078Z,57.30
2018-11-07T21:20:54.920Z,57.23
2018-11-07T21:23:23.988Z,62.20
2018-11-07T21:25:52.927Z,59.93
2018-11-07T21:29:46.061Z,56.80
2018-11-07T21:32:14.826Z,59.13
2018-11-07T21:34:44.132Z,59.47
2018-11-07T21:37:13.533Z,59.73
2018-11-07T21:39:43.376Z,60.33
2018-11-07T21:42:12.277Z,62.03
2018-11-07T21:44:41.150Z,63.07
2018-11-07T21:47:10.505Z,59.67
2018-11-07T21:49:39.250Z,61.20
2018-11-07T21:52:08.106Z,62.33
2018-11-07T21:54:36.854Z,59.27
2018-11-07T21:57:05.636Z,64.17
2018-11-07T21:59:34.526Z,65.17
2018-11-07T22:02:03.333Z,62.10
2018-11-07T22:04:32.467Z,62.97
2018-11-07T22:07:01.288Z,62.47
2018-11-07T22:09:30.046Z,64.43
2018-11-07T22:11:59.024Z,62.10
2018-11-07T22:14:27.902Z,63.03
2018-11-07T22:16:56.793Z,65.70
2018-11-07T22:19:25.555Z,62.20
2018-11-07T22:21:54.552Z,61.23
2018-11-07T22:24:23.506Z,65.57
2018-11-07T22:26:52.267Z,62.30
2018-11-07T22:29:21.103Z,62.07
2018-11-07T22:31:49.803Z,66.03
2018-11-07T22:34:18.464Z,64.57
2018-11-07T22:36:47.402Z,65.30
2018-11-07T22:39:16.960Z,65.80
2018-11-07T22:41:46.031Z,66.57
2018-11-07T22:44:14.943Z,69.80
2018-11-07T22:46:44.266Z,64.47
2018-11-07T22:49:13.101Z,67.67
2018-11-07T22:51:42.173Z,70.13
2018-11-07T22:54:11.025Z,67.20
2018-11-07T22:56:39.771Z,65.60
2018-11-07T22:59:08.635Z,70.70
2018-11-07T23:01:39.502Z,65.50
2018-11-07T23:04:08.641Z,66.37
2018-11-07T23:06:38.382Z,67.50
2018-11-07T23:09:11.100Z,68.23
2018-11-07T23:11:47.522Z,67.00
2018-11-07T23:14:16.415Z,67.90
2018-11-07T23:16:45.236Z,68.97
2018-11-07T23:19:14.123Z,67.33
2018-11-07T23:21:43.037Z,72.97
2018-11-07T23:24:12.309Z,68.47
2018-11-07T23:26:41.159Z,69.00
2018-11-07T23:29:10.081Z,68.37
2018-11-07T23:31:38.965Z,70.23
2018-11-07T23:34:11.211Z,71.33
2018-11-07T23:36:40.027Z,68.17
2018-11-07T23:39:09.688Z,68.10
2018-11-07T23:41:38.744Z,68.10
2018-11-07T23:44:08.117Z,68.27
2018-11-07T23:46:36.942Z,72.63
2018-11-07T23:49:05.908Z,67.13
2018-11-07T23:51:34.646Z,70.80
2018-11-07T23:54:03.336Z,68.53
2018-11-07T23:56:32.818Z,68.20
2018-11-07T23:59:02.184Z,67.50
